Pitt Meadows, British Columbia

15:58 PDT le 30 Mars 2015 (GMT -0700)
Pitt Meadows Chez Douglas | | Change Station
CLOSE
Current Station
Stations météorologiques personnelles
Location: Pitt Meadows, BRITISH COLUMBIA
Altitude: 66 ft
Stations météo à proximité

Alt. 66 ft 49.22 °N, 122.69 °W | Updated 1 minute ago

Mostly Cloudy
Nuageux
63.5 ° F
Paraît 63.5 ° F
N
4.3
Vent Variable Vent de ENE

Aujourd'hui
Haut(e) -- | Bas -- ° F
--% Risque de précip.
Hier
Haut(e) -- | Bas -- ° F
Precip. -- pouce
6:52 AM 7:38 PM
Lune gibbeuse croissante, 82% visible
Pression 29.94 pouce
Visibilité 30.0 Miles terrestres
Nuages Nuages épars 5000 ft
Nuageux 15000 ft
Nuageux 24000 ft
Point de rosée 53 ° F
Humidité 69%
Précipitations 0.11 pouce
Profondeur de la couche neigeuse Non disponible.
UV 3 sur 12
Pollen Non disponible.
Qualité de l'air Non disponible.
Flu Activity Non disponible.
METAR CYXX 302200Z 21012G18KT 30SM SCT050 BKN150 BKN240 18/10 A2994 RMK CU4AC1CI2 SLP139 DENSITY ALT 500FT

More Conditions Fewer Conditions

Pression 29.94 pouce
Visibilité 30.0 Miles terrestres
Nuages Nuages épars 5000 ft
Nuageux 15000 ft
Nuageux 24000 ft
Point de rosée 53 ° F
Humidité 69%
Précipitations 0.11 pouce
Profondeur de la couche neigeuse Non disponible.
UV 3 sur 12
Pollen Non disponible.
Qualité de l'air Non disponible.
Flu Activity Non disponible.
METAR CYXX 302200Z 21012G18KT 30SM SCT050 BKN150 BKN240 18/10 A2994 RMK CU4AC1CI2 SLP139 DENSITY ALT 500FT

More Conditions Fewer Conditions

10-Day Weather Forecast

Almanac

Astronomie

Mar. 30, 2015 Lever Coucher
Temps réel
Crépuscule civil
Crépuscule nautique
Crépuscule astronomique
Lune
Durée de lumière visible
Longueur du jour
Tomorrow will be .
, % of the Moon is Illuminated

Extrêmes aujourd'hui

Country Highs Country Lows

Community

WunderPhotos

Upload Photos

1,809,613 Photos téléchargées !

WunderBlogs® & News

Nearby

Qualité de l'air

  Qualité de l'air Indice de la qualité de l'air Polluant
Not available.

Épaisseur de neige

Station Depth Altitude

Activité sismique

Ville Distance Mag. Time & Date
Minimum magnitude displayed is 2.5.

Températures des eaux côtières

Lieu Température

Stations

Stations météo à proximité

Emplacement de la station Température Refroidissement éolien Point de rosée Humidité Vent Precip. Alt. Mise à jour Type